RORK(METAR)
08/13 14:00
METAR RORK 130500Z AUTO 08016KT 9999 FEW014 32/27 Q1010 RMK A2985=
戻る
トップページへ戻る
IMOC Co,.Ltd.